createdAt,value
2023-02-11T00:00:24.960Z,102323.28
2023-02-11T00:03:29.694Z,102316.34
2023-02-11T00:06:34.230Z,102321.41
2023-02-11T00:09:41.087Z,102321.34
2023-02-11T00:12:43.475Z,102314.25
2023-02-11T00:15:47.161Z,102310.94
2023-02-11T00:18:50.348Z,102309.62
2023-02-11T00:21:52.917Z,102304.72
2023-02-11T00:24:57.135Z,102303.75
2023-02-11T00:28:02.752Z,102307.06
2023-02-11T00:31:05.510Z,102305.59
2023-02-11T00:34:08.146Z,102304.78
2023-02-11T00:37:14.893Z,102297.19
2023-02-11T00:40:17.663Z,102294.94
2023-02-11T00:43:22.620Z,102290.81
2023-02-11T00:46:26.531Z,102292.38
2023-02-11T00:49:28.799Z,102295.47
2023-02-11T00:52:32.370Z,102286.19
2023-02-11T00:55:34.744Z,102295.47
2023-02-11T00:58:37.943Z,102295.06
2023-02-11T01:01:40.470Z,102282.50
2023-02-11T01:04:43.629Z,102281.09
2023-02-11T01:07:46.303Z,102269.03
2023-02-11T01:10:59.751Z,102266.28
2023-02-11T01:14:02.349Z,102260.50
2023-02-11T01:17:06.361Z,102262.25
2023-02-11T01:20:15.452Z,102249.38
2023-02-11T01:23:18.921Z,102245.34
2023-02-11T01:26:21.254Z,102240.88
2023-02-11T01:29:26.255Z,102240.91
2023-02-11T01:32:30.216Z,102236.81
2023-02-11T01:35:32.804Z,102235.09
2023-02-11T01:38:36.866Z,102235.62
2023-02-11T01:41:39.535Z,102233.09
2023-02-11T01:44:41.893Z,102227.38
2023-02-11T01:47:44.973Z,102228.62
2023-02-11T01:50:53.105Z,102223.59
2023-02-11T01:54:16.281Z,102226.75
2023-02-11T01:57:23.085Z,102225.16
2023-02-11T02:00:40.981Z,102224.34
2023-02-11T02:03:48.144Z,102220.78
2023-02-11T02:06:59.614Z,102218.00
2023-02-11T02:10:09.598Z,102214.41
2023-02-11T02:13:12.860Z,102214.19
2023-02-11T02:16:19.392Z,102219.50
2023-02-11T02:19:48.937Z,102219.09
2023-02-11T02:23:04.053Z,102213.56
2023-02-11T02:26:28.430Z,102217.53
2023-02-11T02:29:49.781Z,102219.53
2023-02-11T02:33:22.517Z,102215.22
2023-02-11T02:36:37.865Z,102217.84
2023-02-11T02:39:40.324Z,102218.00
2023-02-11T02:42:44.636Z,102216.03
2023-02-11T02:45:46.960Z,102208.41
2023-02-11T02:48:52.768Z,102221.19
2023-02-11T02:52:20.575Z,102211.22
2023-02-11T02:55:34.968Z,102215.03
2023-02-11T02:59:03.476Z,102204.91
2023-02-11T03:02:32.996Z,102208.53
2023-02-11T03:06:08.012Z,102209.50
2023-02-11T03:09:25.921Z,102201.56
2023-02-11T03:12:31.508Z,102198.03
2023-02-11T03:15:39.095Z,102198.09
2023-02-11T03:18:46.670Z,102194.66
2023-02-11T03:21:51.959Z,102192.09
2023-02-11T03:24:56.509Z,102191.28
2023-02-11T03:28:36.200Z,102195.56
2023-02-11T03:31:58.086Z,102187.09
2023-02-11T03:35:07.750Z,102184.53
2023-02-11T03:38:24.372Z,102185.38
2023-02-11T03:41:28.421Z,102178.38
2023-02-11T03:44:37.172Z,102172.16
2023-02-11T03:47:41.631Z,102162.31
2023-02-11T03:50:47.671Z,102160.84
2023-02-11T03:53:55.025Z,102150.97
2023-02-11T03:57:00.701Z,102144.59
2023-02-11T04:00:06.078Z,102145.63
2023-02-11T04:03:13.828Z,102135.34
2023-02-11T04:06:23.603Z,102129.38
2023-02-11T04:09:25.792Z,102131.84
2023-02-11T04:12:28.292Z,102123.97
2023-02-11T04:15:30.832Z,102116.06
2023-02-11T04:18:35.493Z,102111.50
2023-02-11T04:21:37.855Z,102108.63
2023-02-11T04:24:40.998Z,102099.28
2023-02-11T04:27:43.224Z,102102.84
2023-02-11T04:30:46.177Z,102104.75
2023-02-11T04:33:50.693Z,102107.50
2023-02-11T04:36:55.290Z,102101.22
2023-02-11T04:39:57.888Z,102109.16
2023-02-11T04:43:00.425Z,102101.69
2023-02-11T04:46:02.711Z,102112.06
2023-02-11T04:49:05.891Z,102106.84
2023-02-11T04:52:09.957Z,102099.34
2023-02-11T04:55:12.998Z,102104.50
2023-02-11T04:58:15.183Z,102101.84
2023-02-11T05:01:17.895Z,102116.25
2023-02-11T05:04:22.830Z,102103.47
2023-02-11T05:07:26.480Z,102103.97
2023-02-11T05:10:28.695Z,102102.84
2023-02-11T05:13:32.148Z,102110.06
2023-02-11T05:16:35.108Z,102113.62
2023-02-11T05:19:37.736Z,102120.44
2023-02-11T05:22:40.179Z,102108.19
2023-02-11T05:25:42.668Z,102116.12
2023-02-11T05:28:45.196Z,102113.53
2023-02-11T05:31:47.641Z,102123.97
2023-02-11T05:34:50.065Z,102108.41
2023-02-11T05:37:52.673Z,102103.09
2023-02-11T05:40:55.052Z,102098.88
2023-02-11T05:43:57.591Z,102097.03
2023-02-11T05:47:00.187Z,102099.56
2023-02-11T05:50:03.430Z,102101.44
2023-02-11T05:53:06.815Z,102098.78
2023-02-11T05:56:10.545Z,102091.22
2023-02-11T05:59:14.934Z,102093.12
2023-02-11T06:02:17.565Z,102093.12
2023-02-11T06:05:20.262Z,102103.56
2023-02-11T06:08:22.552Z,102096.62
2023-02-11T06:11:27.682Z,102106.97
2023-02-11T06:14:35.497Z,102107.31
2023-02-11T06:17:40.325Z,102110.78
2023-02-11T06:20:44.067Z,102112.50
2023-02-11T06:23:46.794Z,102116.03
2023-02-11T06:26:49.751Z,102105.00
2023-02-11T06:29:57.535Z,102096.44
2023-02-11T06:32:59.821Z,102089.81
2023-02-11T06:36:03.015Z,102082.53
2023-02-11T06:39:05.795Z,102081.88
2023-02-11T06:42:09.966Z,102085.38
2023-02-11T06:45:13.400Z,102086.38
2023-02-11T06:48:16.192Z,102087.34
2023-02-11T06:51:21.164Z,102078.94
2023-02-11T06:54:23.753Z,102079.84
2023-02-11T06:57:28.076Z,102079.38
2023-02-11T07:00:32.172Z,102082.16
2023-02-11T07:03:36.763Z,102078.03
2023-02-11T07:06:43.110Z,102084.91
2023-02-11T07:09:45.684Z,102073.81
2023-02-11T07:12:48.303Z,102070.37
2023-02-11T07:15:53.229Z,102079.81
2023-02-11T07:18:56.056Z,102080.69
2023-02-11T07:21:58.182Z,102076.38
2023-02-11T07:25:00.681Z,102061.63
2023-02-11T07:28:03.735Z,102077.09
2023-02-11T07:31:13.096Z,102075.50
2023-02-11T07:34:15.470Z,102081.66
2023-02-11T07:37:18.062Z,102082.50
2023-02-11T07:40:20.386Z,102078.22
2023-02-11T07:43:22.920Z,102071.28
2023-02-11T07:46:27.413Z,102065.28
2023-02-11T07:49:30.857Z,102063.44
2023-02-11T07:52:33.454Z,102056.41
2023-02-11T07:55:37.482Z,102045.09
2023-02-11T07:58:42.769Z,102047.53
2023-02-11T08:01:45.563Z,102041.47
2023-02-11T08:04:48.191Z,102049.22
2023-02-11T08:07:54.577Z,102048.44
2023-02-11T08:10:57.353Z,102051.78
2023-02-11T08:13:59.919Z,102055.91
2023-02-11T08:17:02.970Z,102051.63
2023-02-11T08:20:06.936Z,102048.88
2023-02-11T08:23:09.484Z,102048.72
2023-02-11T08:26:16.067Z,102047.06
2023-02-11T08:29:18.635Z,102057.37
2023-02-11T08:32:22.046Z,102047.91
2023-02-11T08:35:26.085Z,102047.31
2023-02-11T08:38:28.364Z,102047.09
2023-02-11T08:41:32.827Z,102056.47
2023-02-11T08:44:35.100Z,102055.91
2023-02-11T08:47:38.196Z,102048.03
2023-02-11T08:50:41.385Z,102060.03
2023-02-11T08:53:44.382Z,102045.16
2023-02-11T08:56:51.639Z,102047.06
2023-02-11T08:59:54.336Z,102050.47
2023-02-11T09:02:58.726Z,102061.81
2023-02-11T09:06:05.450Z,102050.56
2023-02-11T09:09:13.508Z,102050.50
2023-02-11T09:12:16.084Z,102045.34
2023-02-11T09:15:18.313Z,102037.37
2023-02-11T09:18:20.928Z,102039.84
2023-02-11T09:21:25.812Z,102036.34
2023-02-11T09:24:28.879Z,102038.09
2023-02-11T09:27:31.211Z,102025.72
2023-02-11T09:30:34.083Z,102020.91
2023-02-11T09:33:37.474Z,102023.84
2023-02-11T09:36:42.459Z,102018.09
2023-02-11T09:39:46.334Z,102018.50
2023-02-11T09:43:06.929Z,102024.69
2023-02-11T09:46:15.392Z,102015.47
2023-02-11T09:49:30.512Z,102016.87
2023-02-11T09:52:49.214Z,102014.62
2023-02-11T09:55:59.545Z,101999.09
2023-02-11T09:59:01.846Z,102000.41
2023-02-11T10:02:16.161Z,102003.41
2023-02-11T10:05:25.418Z,101993.66
2023-02-11T10:09:06.904Z,101994.09
2023-02-11T10:12:28.118Z,101986.66
2023-02-11T10:15:36.484Z,101987.31
2023-02-11T10:18:51.270Z,101979.16
2023-02-11T10:22:16.992Z,101983.94
2023-02-11T10:25:22.522Z,101984.44
2023-02-11T10:28:31.008Z,101979.56
2023-02-11T10:31:42.447Z,101973.88
2023-02-11T10:34:46.902Z,101964.75
2023-02-11T10:37:50.053Z,101956.72
2023-02-11T10:40:52.624Z,101959.91
2023-02-11T10:43:55.636Z,101954.19
2023-02-11T10:47:05.253Z,101949.94
2023-02-11T10:50:26.852Z,101943.62
2023-02-11T10:53:29.700Z,101936.41
2023-02-11T10:56:37.929Z,101930.31
2023-02-11T10:59:40.604Z,101930.03
2023-02-11T11:02:44.875Z,101924.41
2023-02-11T11:05:51.183Z,101925.94
2023-02-11T11:08:54.255Z,101921.94
2023-02-11T11:11:58.927Z,101917.75
2023-02-11T11:15:01.800Z,101902.53
2023-02-11T11:18:23.073Z,101905.38
2023-02-11T11:21:36.918Z,101895.41
2023-02-11T11:24:46.030Z,101903.09
2023-02-11T11:27:51.039Z,101897.84
2023-02-11T11:30:58.141Z,101892.66
2023-02-11T11:34:20.951Z,101880.00
2023-02-11T11:37:35.405Z,101871.75
2023-02-11T11:40:40.562Z,101870.41
2023-02-11T11:44:05.981Z,101871.50
2023-02-11T11:47:11.821Z,101854.16
2023-02-11T11:50:22.896Z,101841.22
2023-02-11T11:53:53.288Z,101845.75
2023-02-11T11:57:11.041Z,101832.47
2023-02-11T12:00:17.773Z,101835.28
2023-02-11T12:03:32.412Z,101832.03
2023-02-11T12:06:41.205Z,101830.88
2023-02-11T12:09:44.923Z,101835.66
2023-02-11T12:13:19.952Z,101827.50
2023-02-11T12:16:38.068Z,101811.06
2023-02-11T12:19:50.229Z,101793.44
2023-02-11T12:22:56.022Z,101785.38
2023-02-11T12:26:14.410Z,101783.19
2023-02-11T12:29:32.412Z,101767.59
2023-02-11T12:33:07.607Z,101764.16
2023-02-11T12:36:19.833Z,101753.06
2023-02-11T12:39:22.030Z,101749.16
2023-02-11T12:43:11.437Z,101755.87
2023-02-11T12:46:33.445Z,101746.44
2023-02-11T12:50:09.137Z,101762.59
2023-02-11T12:53:30.020Z,101742.81
2023-02-11T12:56:52.922Z,101745.41
2023-02-11T13:00:18.448Z,101742.37
2023-02-11T13:03:27.266Z,101735.16
2023-02-11T13:06:36.277Z,101720.16
2023-02-11T13:09:51.921Z,101722.06
2023-02-11T13:13:15.426Z,101739.59
2023-02-11T13:16:27.761Z,101730.56
2023-02-11T13:19:48.646Z,101719.66
2023-02-11T13:23:22.061Z,101718.13
2023-02-11T13:26:47.341Z,101711.09
2023-02-11T13:29:56.285Z,101690.41
2023-02-11T13:33:00.615Z,101691.94
2023-02-11T13:36:05.325Z,101689.94
2023-02-11T13:39:21.099Z,101691.81
2023-02-11T13:42:24.346Z,101691.97
2023-02-11T13:45:52.031Z,101681.78
2023-02-11T13:48:55.233Z,101680.94
2023-02-11T13:51:59.253Z,101678.44
2023-02-11T13:55:14.482Z,101690.41
2023-02-11T13:58:28.960Z,101694.16
2023-02-11T14:02:12.483Z,101693.47
2023-02-11T14:05:51.976Z,101691.28
2023-02-11T14:09:09.614Z,101696.66
2023-02-11T14:12:31.868Z,101696.84
2023-02-11T14:15:40.927Z,101690.47
2023-02-11T14:18:51.917Z,101667.50
2023-02-11T14:22:18.812Z,101665.81
2023-02-11T14:25:27.375Z,101669.47
2023-02-11T14:28:34.193Z,101679.28
2023-02-11T14:32:06.110Z,101686.84
2023-02-11T14:35:19.062Z,101691.66
2023-02-11T14:39:07.670Z,101705.31
2023-02-11T14:42:20.830Z,101696.91
2023-02-11T14:45:27.290Z,101709.88
2023-02-11T14:48:40.163Z,101703.66
2023-02-11T14:51:44.006Z,101704.84
2023-02-11T14:54:49.291Z,101702.62
2023-02-11T14:58:25.393Z,101699.72
2023-02-11T15:01:36.249Z,101687.53
2023-02-11T15:04:40.422Z,101680.13
2023-02-11T15:07:57.016Z,101670.69
2023-02-11T15:11:02.916Z,101680.13
2023-02-11T15:14:25.889Z,101677.25
2023-02-11T15:17:34.403Z,101661.38
2023-02-11T15:20:37.019Z,101663.28
2023-02-11T15:23:43.188Z,101655.81
2023-02-11T15:26:45.386Z,101650.69
2023-02-11T15:29:50.642Z,101651.03
2023-02-11T15:32:59.890Z,101647.37
2023-02-11T15:36:11.141Z,101651.69
2023-02-11T15:39:33.525Z,101649.34
2023-02-11T15:42:51.788Z,101640.44
2023-02-11T15:46:01.217Z,101637.50
2023-02-11T15:49:04.244Z,101626.59
2023-02-11T15:52:08.226Z,101622.22
2023-02-11T15:55:15.745Z,101623.47
2023-02-11T15:58:18.307Z,101620.44
2023-02-11T16:01:34.080Z,101626.59
2023-02-11T16:04:37.728Z,101622.56
2023-02-11T16:07:53.542Z,101610.59
2023-02-11T16:11:08.935Z,101617.81
2023-02-11T16:14:31.637Z,101619.13
2023-02-11T16:17:34.460Z,101607.25
2023-02-11T16:20:36.673Z,101608.34
2023-02-11T16:23:45.504Z,101618.22
2023-02-11T16:26:53.456Z,101604.56
2023-02-11T16:29:58.132Z,101592.69
2023-02-11T16:33:00.672Z,101589.69
2023-02-11T16:36:13.936Z,101595.81
2023-02-11T16:39:18.201Z,101599.59
2023-02-11T16:42:20.654Z,101604.00
2023-02-11T16:45:22.957Z,101600.56
2023-02-11T16:48:25.666Z,101609.13
2023-02-11T16:51:27.999Z,101612.53
2023-02-11T16:54:30.625Z,101610.78
2023-02-11T16:57:32.842Z,101599.44
2023-02-11T17:00:36.441Z,101582.94
2023-02-11T17:03:40.599Z,101578.97
2023-02-11T17:06:43.504Z,101587.44
2023-02-11T17:09:45.700Z,101589.19
2023-02-11T17:12:49.912Z,101595.44
2023-02-11T17:15:52.485Z,101603.72
2023-02-11T17:18:55.243Z,101598.25
2023-02-11T17:21:57.441Z,101593.00
2023-02-11T17:25:04.803Z,101601.56
2023-02-11T17:28:09.451Z,101600.66
2023-02-11T17:31:12.300Z,101602.34
2023-02-11T17:34:14.972Z,101604.03
2023-02-11T17:37:17.781Z,101607.91
2023-02-11T17:40:21.558Z,101611.53
2023-02-11T17:43:25.169Z,101616.66
2023-02-11T17:46:32.384Z,101615.84
2023-02-11T17:49:35.132Z,101615.28
2023-02-11T17:52:37.889Z,101613.66
2023-02-11T17:55:40.588Z,101604.94
2023-02-11T17:58:42.873Z,101609.91
2023-02-11T18:01:45.700Z,101611.81
2023-02-11T18:04:48.334Z,101605.97
2023-02-11T18:07:50.696Z,101588.38
2023-02-11T18:10:53.341Z,101578.91
2023-02-11T18:13:55.992Z,101569.56
2023-02-11T18:16:58.672Z,101566.63
2023-02-11T18:20:01.081Z,101559.28
2023-02-11T18:23:04.617Z,101569.19
2023-02-11T18:26:07.969Z,101563.31
2023-02-11T18:29:10.570Z,101559.03
2023-02-11T18:32:13.683Z,101560.00
2023-02-11T18:35:18.168Z,101561.72
2023-02-11T18:38:22.247Z,101568.66
2023-02-11T18:41:24.850Z,101560.06
2023-02-11T18:44:27.480Z,101564.66
2023-02-11T18:47:31.320Z,101564.72
2023-02-11T18:50:33.685Z,101576.66
2023-02-11T18:53:36.397Z,101582.63
2023-02-11T18:56:39.210Z,101566.09
2023-02-11T18:59:42.875Z,101575.75
2023-02-11T19:02:45.137Z,101567.09
2023-02-11T19:05:49.382Z,101568.94
2023-02-11T19:08:53.647Z,101563.59
2023-02-11T19:11:57.926Z,101573.78
2023-02-11T19:15:00.864Z,101583.31
2023-02-11T19:18:03.428Z,101576.91
2023-02-11T19:21:13.134Z,101573.59
2023-02-11T19:24:18.936Z,101578.28
2023-02-11T19:27:21.421Z,101594.88
2023-02-11T19:30:24.293Z,101582.78
2023-02-11T19:33:26.544Z,101597.72
2023-02-11T19:36:29.462Z,101588.09
2023-02-11T19:39:31.754Z,101588.28
2023-02-11T19:42:34.366Z,101585.56
2023-02-11T19:45:39.606Z,101583.34
2023-02-11T19:48:42.362Z,101586.19
2023-02-11T19:51:44.597Z,101580.94
2023-02-11T19:54:47.203Z,101581.16
2023-02-11T19:57:50.078Z,101588.88
2023-02-11T20:00:52.999Z,101594.97
2023-02-11T20:03:57.485Z,101582.50
2023-02-11T20:06:59.870Z,101574.12
2023-02-11T20:10:02.707Z,101571.12
2023-02-11T20:13:05.129Z,101572.66
2023-02-11T20:16:13.450Z,101572.78
2023-02-11T20:19:18.655Z,101565.56
2023-02-11T20:22:22.134Z,101564.72
2023-02-11T20:25:24.641Z,101555.44
2023-02-11T20:28:27.547Z,101553.25
2023-02-11T20:31:32.241Z,101561.06
2023-02-11T20:34:34.998Z,101555.00
2023-02-11T20:37:38.708Z,101546.56
2023-02-11T20:40:41.327Z,101553.03
2023-02-11T20:43:46.162Z,101547.06
2023-02-11T20:46:49.392Z,101544.25
2023-02-11T20:49:54.933Z,101533.12
2023-02-11T20:52:57.543Z,101514.38
2023-02-11T20:56:10.748Z,101514.03
2023-02-11T20:59:14.304Z,101528.31
2023-02-11T21:02:16.620Z,101516.69
2023-02-11T21:05:19.745Z,101519.81
2023-02-11T21:08:21.889Z,101524.75
2023-02-11T21:11:24.588Z,101529.56
2023-02-11T21:14:28.733Z,101535.09
2023-02-11T21:17:32.049Z,101529.09
2023-02-11T21:20:34.353Z,101529.81
2023-02-11T21:23:39.532Z,101528.00
2023-02-11T21:26:42.321Z,101522.06
2023-02-11T21:29:53.748Z,101515.25
2023-02-11T21:33:00.462Z,101525.69
2023-02-11T21:36:04.554Z,101536.94
2023-02-11T21:39:07.091Z,101525.56
2023-02-11T21:42:09.776Z,101515.19
2023-02-11T21:45:12.048Z,101515.41
2023-02-11T21:48:15.240Z,101510.12
2023-02-11T21:51:20.742Z,101508.31
2023-02-11T21:54:25.748Z,101508.63
2023-02-11T21:57:28.036Z,101503.31
2023-02-11T22:00:31.235Z,101494.75
2023-02-11T22:03:33.793Z,101485.34
2023-02-11T22:06:35.980Z,101482.13
2023-02-11T22:09:39.638Z,101483.91
2023-02-11T22:12:42.189Z,101476.31
2023-02-11T22:15:44.646Z,101486.81
2023-02-11T22:18:46.956Z,101499.22
2023-02-11T22:21:49.813Z,101499.38
2023-02-11T22:24:53.970Z,101507.25
2023-02-11T22:27:56.610Z,101516.84
2023-02-11T22:30:59.150Z,101518.66
2023-02-11T22:34:03.484Z,101511.69
2023-02-11T22:37:07.437Z,101514.38
2023-02-11T22:40:10.515Z,101517.87
2023-02-11T22:43:12.721Z,101539.47
2023-02-11T22:46:18.118Z,101526.53
2023-02-11T22:49:21.644Z,101535.50
2023-02-11T22:52:24.143Z,101528.56
2023-02-11T22:55:26.699Z,101523.31
2023-02-11T22:58:29.386Z,101519.88
2023-02-11T23:01:32.087Z,101511.28
2023-02-11T23:04:34.770Z,101504.34
2023-02-11T23:07:37.191Z,101510.50
2023-02-11T23:10:40.343Z,101508.03
2023-02-11T23:13:43.334Z,101510.53
2023-02-11T23:16:46.103Z,101540.12
2023-02-11T23:19:48.445Z,101524.53
2023-02-11T23:22:51.122Z,101540.16
2023-02-11T23:25:53.518Z,101551.56
2023-02-11T23:28:58.008Z,101542.91
2023-02-11T23:32:00.437Z,101533.44
2023-02-11T23:35:03.312Z,101533.34
2023-02-11T23:38:05.805Z,101526.47
2023-02-11T23:41:08.570Z,101530.75
2023-02-11T23:44:11.003Z,101533.25
2023-02-11T23:47:13.815Z,101536.72
2023-02-11T23:50:16.228Z,101520.97
2023-02-11T23:53:18.954Z,101518.31
2023-02-11T23:56:26.924Z,101512.34
2023-02-11T23:59:29.809Z,101520.28
